Time;durP1;ratioP1;P1;durP2;ratioP2;P2;SDS_P1;SDS_P2;PMS_P1;PMS_P2;Temp;Humidity;BMP_temperature;BMP_pressure;BME280_temperature;BME280_humidity;BME280_pressure;Samples;Min_cycle;Max_cycle;Signal;HPM_P1;HPM_P2
2023/04/29 00:03:00;;;;;;;1.20;1.00;;;;;;;;;;8254943;28;20038;-71
2023/04/29 00:07:01;;;;;;;0.90;0.90;;;;;;;;;;8255094;28;20295;-71
2023/04/29 00:11:01;;;;;;;2.88;1.10;;;;;;;;;;8254583;28;20108;-71
2023/04/29 00:15:03;;;;;;;2.33;0.90;;;;;;;;;;8255085;28;20034;-71
2023/04/29 00:19:03;;;;;;;1.80;0.80;;;;;;;;;;8259544;28;20377;-71
2023/04/29 00:23:03;;;;;;;0.90;0.90;;;;;;;;;;8254777;28;20121;-71
2023/04/29 00:27:05;;;;;;;1.15;0.80;;;;;;;;;;8257645;28;20029;-71
2023/04/29 00:31:05;;;;;;;1.65;1.08;;;;;;;;;;8252254;28;20089;-71
2023/04/29 00:35:06;;;;;;;0.88;0.80;;;;;;;;;;8255184;28;20033;-71
2023/04/29 00:39:06;;;;;;;1.90;0.90;;;;;;;;;;8252771;28;20018;-71
2023/04/29 00:43:07;;;;;;;0.80;0.80;;;;;;;;;;8254662;28;20032;-71
2023/04/29 00:47:10;;;;;;;4.50;0.80;;;;;;;;;;8253302;28;20033;-71
2023/04/29 00:51:11;;;;;;;3.72;0.80;;;;;;;;;;8253107;28;20141;-71
2023/04/29 00:55:11;;;;;;;1.95;0.70;;;;;;;;;;8255331;28;20069;-71
2023/04/29 00:59:14;;;;;;;2.20;0.85;;;;;;;;;;8253968;28;20050;-71
2023/04/29 01:03:14;;;;;;;2.40;0.80;;;;;;;;;;8275207;28;20854;-71
2023/04/29 01:07:22;;;;;;;0.88;0.80;;;;;;;;;;8288396;28;20576;-71
2023/04/29 01:11:27;;;;;;;1.27;0.90;;;;;;;;;;8286128;28;20040;-71
2023/04/29 01:15:31;;;;;;;0.98;0.70;;;;;;;;;;8280422;28;20413;-71
2023/04/29 01:19:43;;;;;;;2.05;0.70;;;;;;;;;;8252732;28;20025;-71
2023/04/29 01:23:44;;;;;;;2.05;1.10;;;;;;;;;;8253882;28;20144;-71
2023/04/29 01:27:54;;;;;;;2.13;1.55;;;;;;;;;;8249008;28;20060;-71
2023/04/29 01:32:00;;;;;;;4.97;1.50;;;;;;;;;;8249735;28;21199;-71
2023/04/29 01:36:00;;;;;;;2.22;1.50;;;;;;;;;;8251831;28;20046;-71
2023/04/29 01:40:03;;;;;;;2.03;1.23;;;;;;;;;;8251291;28;20760;-70
2023/04/29 01:44:04;;;;;;;1.00;1.00;;;;;;;;;;8252247;28;20026;-71
2023/04/29 01:48:05;;;;;;;1.30;1.20;;;;;;;;;;8252020;28;20041;-70
2023/04/29 01:52:06;;;;;;;2.33;1.87;;;;;;;;;;8251185;28;20089;-71
2023/04/29 01:56:06;;;;;;;1.50;1.40;;;;;;;;;;8252206;28;20288;-70
2023/04/29 02:00:07;;;;;;;2.75;1.10;;;;;;;;;;8257852;28;20037;-71
2023/04/29 02:04:08;;;;;;;1.20;1.10;;;;;;;;;;8254628;28;20022;-71
2023/04/29 02:08:08;;;;;;;2.28;1.30;;;;;;;;;;8255550;28;20128;-71
2023/04/29 02:12:08;;;;;;;3.88;1.80;;;;;;;;;;8253354;28;20033;-70
2023/04/29 02:16:08;;;;;;;3.35;2.28;;;;;;;;;;8251528;28;20045;-71
2023/04/29 02:20:09;;;;;;;2.38;2.00;;;;;;;;;;8251611;28;20029;-70
2023/04/29 02:24:09;;;;;;;1.30;1.20;;;;;;;;;;8253152;28;20888;-71
2023/04/29 02:28:09;;;;;;;2.75;0.80;;;;;;;;;;8251209;28;20096;-71
2023/04/29 02:32:10;;;;;;;1.08;0.90;;;;;;;;;;8252623;28;20058;-70
2023/04/29 02:36:10;;;;;;;1.63;1.13;;;;;;;;;;8249613;28;20551;-71
2023/04/29 02:40:11;;;;;;;1.10;0.80;;;;;;;;;;8252011;28;20026;-71
2023/04/29 02:44:11;;;;;;;1.10;1.10;;;;;;;;;;8255203;28;20065;-71
2023/04/29 02:48:11;;;;;;;2.47;1.00;;;;;;;;;;8252765;28;20299;-71
2023/04/29 02:52:12;;;;;;;3.00;1.13;;;;;;;;;;8250708;28;20103;-71
2023/04/29 02:56:12;;;;;;;1.23;0.90;;;;;;;;;;8249578;28;20022;-71
2023/04/29 03:00:12;;;;;;;0.80;0.80;;;;;;;;;;8249647;28;20025;-71
2023/04/29 03:04:12;;;;;;;0.85;0.85;;;;;;;;;;8250558;28;20029;-71
2023/04/29 03:08:13;;;;;;;1.20;1.20;;;;;;;;;;8250314;28;20034;-71
2023/04/29 03:12:14;;;;;;;2.20;1.10;;;;;;;;;;8252163;28;20030;-70
2023/04/29 03:16:15;;;;;;;2.25;0.90;;;;;;;;;;8250925;28;20049;-71
2023/04/29 03:20:15;;;;;;;1.15;1.08;;;;;;;;;;8255720;28;20479;-71
2023/04/29 03:24:16;;;;;;;1.13;1.10;;;;;;;;;;8251424;28;20036;-71
2023/04/29 03:28:16;;;;;;;2.45;1.10;;;;;;;;;;8249283;28;20061;-71
2023/04/29 03:32:16;;;;;;;1.00;1.00;;;;;;;;;;8251378;28;20100;-71
2023/04/29 03:36:17;;;;;;;2.00;1.30;;;;;;;;;;8254513;28;20076;-71
2023/04/29 03:40:17;;;;;;;1.30;1.20;;;;;;;;;;8259002;28;20644;-71
2023/04/29 03:44:17;;;;;;;1.40;1.27;;;;;;;;;;8262581;28;20025;-71
2023/04/29 03:48:18;;;;;;;1.67;1.20;;;;;;;;;;8256377;28;20038;-71
2023/04/29 03:52:19;;;;;;;1.15;0.90;;;;;;;;;;8256084;28;20040;-71
2023/04/29 03:56:19;;;;;;;1.08;1.08;;;;;;;;;;8256266;28;20295;-71
2023/04/29 04:00:19;;;;;;;2.35;1.00;;;;;;;;;;8254642;28;20141;-71
2023/04/29 04:04:20;;;;;;;0.93;0.93;;;;;;;;;;8257722;28;20862;-71
2023/04/29 04:08:20;;;;;;;1.00;1.00;;;;;;;;;;8254038;28;20821;-71
2023/04/29 04:12:21;;;;;;;1.27;1.17;;;;;;;;;;8257007;28;20652;-71
2023/04/29 04:16:21;;;;;;;1.23;1.15;;;;;;;;;;8256526;28;20042;-71
2023/04/29 04:20:21;;;;;;;1.30;1.20;;;;;;;;;;8254767;28;20744;-71
2023/04/29 04:24:21;;;;;;;1.50;1.20;;;;;;;;;;8254988;28;20057;-71
2023/04/29 04:28:22;;;;;;;1.25;1.17;;;;;;;;;;8256416;28;20022;-71
2023/04/29 04:32:22;;;;;;;1.40;1.30;;;;;;;;;;8266602;28;20038;-71
2023/04/29 04:36:22;;;;;;;1.80;1.70;;;;;;;;;;8263093;28;20030;-71
2023/04/29 04:40:23;;;;;;;2.97;1.80;;;;;;;;;;8254893;28;20265;-71
2023/04/29 04:44:23;;;;;;;3.78;1.95;;;;;;;;;;8260764;28;20022;-71
2023/04/29 04:48:23;;;;;;;3.58;2.50;;;;;;;;;;8264203;28;20034;-71
2023/04/29 04:52:23;;;;;;;3.50;3.20;;;;;;;;;;8251853;28;20022;-71
2023/04/29 04:56:24;;;;;;;3.33;2.83;;;;;;;;;;8261045;28;20152;-71
2023/04/29 05:00:24;;;;;;;4.57;3.58;;;;;;;;;;8252738;28;20037;-72
2023/04/29 05:04:24;;;;;;;9.27;4.35;;;;;;;;;;8253221;28;20034;-71
2023/04/29 05:08:25;;;;;;;5.70;4.68;;;;;;;;;;8254963;28;20116;-72
2023/04/29 05:12:29;;;;;;;7.00;4.85;;;;;;;;;;8270197;28;20685;-73
2023/04/29 05:16:29;;;;;;;5.82;4.68;;;;;;;;;;8253111;28;20541;-73
2023/04/29 05:20:30;;;;;;;6.53;4.60;;;;;;;;;;8258082;28;20749;-72
2023/04/29 05:24:30;;;;;;;6.20;4.63;;;;;;;;;;8263353;28;20041;-73
2023/04/29 05:28:30;;;;;;;7.38;4.47;;;;;;;;;;8253099;28;20034;-73
2023/04/29 05:32:30;;;;;;;6.53;5.18;;;;;;;;;;8254363;28;20877;-73
2023/04/29 05:36:30;;;;;;;7.78;4.68;;;;;;;;;;8256652;28;20030;-73
2023/04/29 05:40:31;;;;;;;8.13;5.43;;;;;;;;;;8260641;28;20018;-73
2023/04/29 05:44:31;;;;;;;8.18;5.18;;;;;;;;;;8255109;28;20050;-73
2023/04/29 05:48:31;;;;;;;9.15;4.50;;;;;;;;;;8253685;28;20578;-73
2023/04/29 05:52:32;;;;;;;8.57;5.10;;;;;;;;;;8250996;28;20795;-73
2023/04/29 05:56:32;;;;;;;7.00;5.05;;;;;;;;;;8253388;28;20545;-73
2023/04/29 06:00:32;;;;;;;6.65;5.40;;;;;;;;;;8253378;28;20048;-73
2023/04/29 06:04:32;;;;;;;6.82;4.90;;;;;;;;;;8255656;28;20018;-73
2023/04/29 06:08:32;;;;;;;6.35;4.78;;;;;;;;;;8245792;28;20041;-73
2023/04/29 06:12:33;;;;;;;5.75;4.43;;;;;;;;;;8263512;28;20044;-74
2023/04/29 06:16:33;;;;;;;5.63;4.30;;;;;;;;;;8248640;28;20726;-74
2023/04/29 06:20:33;;;;;;;6.50;5.00;;;;;;;;;;8250386;28;20291;-73
2023/04/29 06:24:33;;;;;;;5.75;5.15;;;;;;;;;;8249569;28;21018;-74
2023/04/29 06:28:33;;;;;;;5.50;4.38;;;;;;;;;;8248445;28;20054;-73
2023/04/29 06:32:34;;;;;;;4.57;4.00;;;;;;;;;;8248566;28;20045;-73
2023/04/29 06:36:34;;;;;;;4.40;4.00;;;;;;;;;;8258307;28;20026;-74
2023/04/29 06:40:34;;;;;;;6.70;4.82;;;;;;;;;;8248209;28;20022;-73
2023/04/29 06:44:35;;;;;;;8.10;5.07;;;;;;;;;;8248138;28;20103;-74
2023/04/29 06:48:36;;;;;;;7.00;5.50;;;;;;;;;;8250497;28;20478;-73
2023/04/29 06:52:36;;;;;;;8.32;6.60;;;;;;;;;;8251746;28;20030;-74
2023/04/29 06:56:36;;;;;;;8.57;6.00;;;;;;;;;;8246937;28;20584;-73
2023/04/29 07:00:36;;;;;;;8.85;6.53;;;;;;;;;;8247543;28;20034;-73
2023/04/29 07:04:36;;;;;;;7.38;5.88;;;;;;;;;;8249132;28;20030;-73
2023/04/29 07:08:36;;;;;;;7.15;6.10;;;;;;;;;;8249465;28;20084;-73
2023/04/29 07:12:37;;;;;;;8.57;5.45;;;;;;;;;;8257140;28;20148;-73
2023/04/29 07:16:37;;;;;;;8.55;5.28;;;;;;;;;;8258294;28;20582;-73
2023/04/29 07:20:37;;;;;;;7.40;4.85;;;;;;;;;;8256054;28;20022;-73
2023/04/29 07:24:37;;;;;;;8.13;4.55;;;;;;;;;;8258116;28;20025;-73
2023/04/29 07:28:38;;;;;;;4.90;4.10;;;;;;;;;;8260670;28;20134;-73
2023/04/29 07:32:38;;;;;;;6.28;4.20;;;;;;;;;;8253510;28;20756;-74
2023/04/29 07:36:38;;;;;;;5.63;4.00;;;;;;;;;;8257053;28;20091;-73
2023/04/29 07:40:40;;;;;;;4.53;3.78;;;;;;;;;;8259511;28;20976;-73
2023/04/29 07:44:40;;;;;;;6.38;3.67;;;;;;;;;;8257360;28;20820;-74
2023/04/29 07:48:40;;;;;;;5.32;3.38;;;;;;;;;;8257071;28;20037;-73
2023/04/29 07:52:41;;;;;;;5.32;3.58;;;;;;;;;;8250698;28;20561;-73
2023/04/29 07:56:41;;;;;;;6.68;3.60;;;;;;;;;;8254795;28;20054;-73
2023/04/29 08:00:41;;;;;;;4.03;3.57;;;;;;;;;;8263518;28;20088;-73
2023/04/29 08:04:41;;;;;;;4.63;3.45;;;;;;;;;;8267383;28;20333;-73
2023/04/29 08:08:42;;;;;;;3.63;3.22;;;;;;;;;;8262157;28;20157;-73
2023/04/29 08:12:45;;;;;;;4.85;3.40;;;;;;;;;;8253672;28;20128;-73
2023/04/29 08:16:45;;;;;;;3.13;2.83;;;;;;;;;;8258180;28;20073;-73
2023/04/29 08:20:46;;;;;;;4.37;3.13;;;;;;;;;;8260873;28;20034;-73
2023/04/29 08:24:47;;;;;;;3.65;3.00;;;;;;;;;;8254037;28;20378;-74
2023/04/29 08:28:47;;;;;;;3.20;2.90;;;;;;;;;;8252094;28;20025;-73
2023/04/29 08:32:47;;;;;;;3.25;2.72;;;;;;;;;;8269348;28;20037;-73
2023/04/29 08:36:48;;;;;;;3.27;2.87;;;;;;;;;;8254598;28;20025;-73
2023/04/29 08:40:48;;;;;;;4.55;3.30;;;;;;;;;;8261134;28;20116;-73
2023/04/29 08:44:48;;;;;;;4.13;3.30;;;;;;;;;;8254720;28;20599;-73
2023/04/29 08:48:48;;;;;;;3.38;3.08;;;;;;;;;;8282970;28;20830;-73
2023/04/29 08:52:49;;;;;;;5.72;3.65;;;;;;;;;;8285452;28;20029;-73
2023/04/29 08:56:50;;;;;;;3.70;3.17;;;;;;;;;;8285223;28;20025;-73
2023/04/29 09:00:51;;;;;;;3.58;3.28;;;;;;;;;;8285994;28;20034;-73
2023/04/29 09:04:51;;;;;;;4.22;2.95;;;;;;;;;;8289518;28;20023;-73
2023/04/29 09:08:51;;;;;;;5.50;3.53;;;;;;;;;;8286715;28;20885;-73
2023/04/29 09:12:54;;;;;;;5.65;3.03;;;;;;;;;;8289442;28;20604;-73
2023/04/29 09:16:54;;;;;;;3.23;2.93;;;;;;;;;;8285424;28;20098;-73
2023/04/29 09:20:55;;;;;;;4.85;3.83;;;;;;;;;;8286625;28;20029;-75
2023/04/29 09:25:10;;;;;;;3.13;2.83;;;;;;;;;;8287356;28;20041;-73
2023/04/29 09:29:12;;;;;;;3.50;3.15;;;;;;;;;;8291994;28;20025;-73
2023/04/29 09:33:14;;;;;;;3.55;2.78;;;;;;;;;;8285722;28;20160;-73
2023/04/29 09:37:25;;;;;;;3.05;2.80;;;;;;;;;;8287558;28;20039;-73
2023/04/29 09:41:25;;;;;;;2.78;2.58;;;;;;;;;;8288266;28;20487;-74
2023/04/29 09:45:35;;;;;;;3.03;2.70;;;;;;;;;;8287134;28;20037;-73
2023/04/29 09:49:37;;;;;;;3.28;2.95;;;;;;;;;;8286963;28;20033;-74
2023/04/29 09:53:37;;;;;;;3.47;3.15;;;;;;;;;;8293098;28;20064;-73
2023/04/29 09:57:39;;;;;;;3.67;2.83;;;;;;;;;;8290837;28;20545;-74
2023/04/29 10:01:39;;;;;;;3.10;2.80;;;;;;;;;;8288059;28;20029;-73
2023/04/29 10:05:40;;;;;;;3.83;3.03;;;;;;;;;;8287352;28;20033;-73
2023/04/29 10:09:40;;;;;;;3.33;3.03;;;;;;;;;;8285761;28;20300;-74
2023/04/29 10:13:41;;;;;;;3.78;2.90;;;;;;;;;;8279962;28;20044;-73
2023/04/29 10:17:57;;;;;;;3.65;2.85;;;;;;;;;;8288438;28;20212;-73
2023/04/29 10:21:59;;;;;;;6.85;4.50;;;;;;;;;;8282030;28;20034;-73
2023/04/29 10:25:59;;;;;;;6.43;5.00;;;;;;;;;;8284325;28;20594;-73
2023/04/29 10:30:01;;;;;;;5.90;5.30;;;;;;;;;;8299045;28;20087;-74
2023/04/29 10:34:01;;;;;;;5.95;5.15;;;;;;;;;;8286188;28;20044;-73
2023/04/29 10:38:04;;;;;;;5.43;4.65;;;;;;;;;;8289738;28;20563;-73
2023/04/29 10:42:05;;;;;;;5.53;4.33;;;;;;;;;;8284348;28;20498;-73
2023/04/29 10:46:27;;;;;;;5.95;4.18;;;;;;;;;;8283954;28;20359;-73
2023/04/29 10:50:28;;;;;;;4.15;3.75;;;;;;;;;;8287072;28;20029;-73
2023/04/29 10:54:28;;;;;;;4.07;3.47;;;;;;;;;;8285585;28;20059;-73
2023/04/29 10:58:39;;;;;;;5.07;3.63;;;;;;;;;;8286584;28;20482;-73
2023/04/29 11:02:40;;;;;;;6.00;3.05;;;;;;;;;;8285440;28;20042;-73
2023/04/29 11:06:42;;;;;;;3.78;2.85;;;;;;;;;;8284705;28;20044;-73
2023/04/29 11:10:42;;;;;;;3.28;2.80;;;;;;;;;;8288873;28;20033;-73
2023/04/29 11:14:48;;;;;;;2.65;2.45;;;;;;;;;;8285225;28;20060;-73
2023/04/29 11:19:06;;;;;;;2.80;2.50;;;;;;;;;;8285071;28;20041;-73
2023/04/29 11:23:06;;;;;;;2.70;2.40;;;;;;;;;;8295219;28;20494;-73
2023/04/29 11:27:06;;;;;;;3.10;2.80;;;;;;;;;;8288283;28;20107;-72
2023/04/29 11:31:07;;;;;;;2.90;2.60;;;;;;;;;;8289522;28;20339;-73
2023/04/29 11:35:10;;;;;;;3.17;2.88;;;;;;;;;;8286258;28;20095;-73
2023/04/29 11:39:11;;;;;;;3.50;3.20;;;;;;;;;;8282311;28;20033;-73
2023/04/29 11:43:15;;;;;;;3.42;2.88;;;;;;;;;;8291680;28;20553;-73
2023/04/29 11:47:15;;;;;;;3.17;2.88;;;;;;;;;;8286309;28;20124;-73
2023/04/29 11:51:16;;;;;;;3.92;2.80;;;;;;;;;;8284393;28;20532;-73
2023/04/29 11:55:17;;;;;;;3.63;2.95;;;;;;;;;;8289330;28;20541;-73
2023/04/29 11:59:18;;;;;;;3.22;2.92;;;;;;;;;;8291322;28;20398;-73
2023/04/29 12:03:19;;;;;;;3.17;2.70;;;;;;;;;;8307146;28;20033;-72
2023/04/29 12:07:19;;;;;;;2.90;2.63;;;;;;;;;;8315672;28;20083;-73
2023/04/29 12:11:20;;;;;;;6.15;2.85;;;;;;;;;;8290772;28;20143;-73
2023/04/29 12:15:21;;;;;;;3.00;2.70;;;;;;;;;;8294277;28;20021;-72
2023/04/29 12:19:21;;;;;;;2.60;2.40;;;;;;;;;;8294829;28;20033;-72
2023/04/29 12:23:23;;;;;;;3.15;2.88;;;;;;;;;;8302444;28;20103;-73
2023/04/29 12:27:23;;;;;;;2.75;2.55;;;;;;;;;;8309279;28;20981;-73
2023/04/29 12:31:31;;;;;;;4.97;2.80;;;;;;;;;;8291524;28;20053;-73
2023/04/29 12:35:31;;;;;;;3.67;2.92;;;;;;;;;;8282865;28;20280;-73
2023/04/29 12:39:33;;;;;;;3.10;2.80;;;;;;;;;;8291057;28;20021;-73
2023/04/29 12:43:33;;;;;;;3.75;3.22;;;;;;;;;;8287665;28;20025;-73
2023/04/29 12:47:35;;;;;;;4.03;3.20;;;;;;;;;;8299120;28;20163;-73
2023/04/29 12:51:36;;;;;;;4.10;2.97;;;;;;;;;;8290808;28;20064;-73
2023/04/29 12:55:36;;;;;;;2.90;2.65;;;;;;;;;;8298699;28;20434;-73
2023/04/29 12:59:37;;;;;;;2.90;2.55;;;;;;;;;;8298735;28;20781;-73
2023/04/29 13:03:37;;;;;;;2.60;2.40;;;;;;;;;;8288767;28;20038;-73
2023/04/29 13:07:37;;;;;;;2.80;2.60;;;;;;;;;;8288743;28;20024;-73
2023/04/29 13:11:38;;;;;;;3.03;2.70;;;;;;;;;;8287798;28;20356;-73
2023/04/29 13:15:38;;;;;;;3.47;2.80;;;;;;;;;;8289963;28;20045;-73
2023/04/29 13:19:38;;;;;;;2.05;1.95;;;;;;;;;;8291640;28;20017;-73
2023/04/29 13:23:38;;;;;;;2.20;2.10;;;;;;;;;;8288981;28;20036;-73
2023/04/29 13:27:39;;;;;;;2.05;1.95;;;;;;;;;;8289615;28;20117;-73
2023/04/29 13:31:39;;;;;;;2.40;2.20;;;;;;;;;;8290687;28;20048;-73
2023/04/29 13:35:40;;;;;;;2.33;2.13;;;;;;;;;;8289811;28;20048;-73
2023/04/29 13:39:40;;;;;;;2.22;2.10;;;;;;;;;;8287845;28;20043;-73
2023/04/29 13:43:40;;;;;;;1.90;1.80;;;;;;;;;;8279901;28;20037;-73
2023/04/29 13:47:41;;;;;;;2.40;1.92;;;;;;;;;;8293357;28;20038;-73
2023/04/29 13:51:41;;;;;;;2.53;2.33;;;;;;;;;;8289027;28;20061;-74
2023/04/29 13:55:41;;;;;;;2.20;2.00;;;;;;;;;;8283939;28;20453;-73
2023/04/29 13:59:41;;;;;;;3.53;2.43;;;;;;;;;;8284800;28;20703;-73
2023/04/29 14:03:43;;;;;;;2.22;2.05;;;;;;;;;;8279482;28;20542;-73
2023/04/29 14:07:43;;;;;;;2.60;2.40;;;;;;;;;;8279234;28;20390;-74
2023/04/29 14:11:43;;;;;;;2.67;2.47;;;;;;;;;;8287721;28;20087;-73
2023/04/29 14:15:43;;;;;;;2.58;2.35;;;;;;;;;;8270663;28;20203;-73
2023/04/29 14:19:43;;;;;;;2.67;2.43;;;;;;;;;;8280769;28;20017;-74
2023/04/29 14:23:44;;;;;;;2.60;2.40;;;;;;;;;;8281044;28;20060;-73
2023/04/29 14:27:44;;;;;;;2.50;2.30;;;;;;;;;;8280477;28;20331;-73
2023/04/29 14:31:44;;;;;;;2.47;2.27;;;;;;;;;;8281310;28;20042;-73
2023/04/29 14:35:45;;;;;;;4.13;2.20;;;;;;;;;;8277556;28;20284;-73
2023/04/29 14:39:45;;;;;;;4.53;2.17;;;;;;;;;;8291385;28;20342;-73
2023/04/29 14:43:45;;;;;;;2.00;1.90;;;;;;;;;;8282732;28;20037;-73
2023/04/29 14:47:46;;;;;;;2.13;2.00;;;;;;;;;;8275905;28;20060;-74
2023/04/29 14:51:46;;;;;;;2.50;2.30;;;;;;;;;;8282701;28;20040;-73
2023/04/29 14:55:48;;;;;;;2.60;2.40;;;;;;;;;;8281440;28;20049;-74
2023/04/29 14:59:48;;;;;;;2.50;2.30;;;;;;;;;;8288599;28;20065;-73
2023/04/29 15:03:49;;;;;;;2.58;2.10;;;;;;;;;;8279417;28;20037;-73
2023/04/29 15:07:50;;;;;;;2.53;2.10;;;;;;;;;;8287098;28;20113;-73
2023/04/29 15:11:50;;;;;;;2.42;2.30;;;;;;;;;;8282468;28;20279;-74
2023/04/29 15:15:50;;;;;;;2.33;2.13;;;;;;;;;;8279612;28;20124;-74
2023/04/29 15:19:51;;;;;;;2.50;2.30;;;;;;;;;;8288010;28;20114;-73
2023/04/29 15:23:51;;;;;;;2.63;2.42;;;;;;;;;;8282493;28;20453;-73
2023/04/29 15:27:52;;;;;;;2.55;2.35;;;;;;;;;;8279527;28;20064;-74
2023/04/29 15:31:52;;;;;;;3.00;2.80;;;;;;;;;;8284020;28;20061;-73
2023/04/29 15:35:54;;;;;;;3.70;3.40;;;;;;;;;;8285611;28;20025;-73
2023/04/29 15:39:55;;;;;;;4.13;3.10;;;;;;;;;;8299756;28;20359;-73
2023/04/29 15:43:56;;;;;;;3.10;2.80;;;;;;;;;;8288670;28;20360;-73
2023/04/29 15:47:56;;;;;;;3.00;2.80;;;;;;;;;;8287044;28;20891;-73
2023/04/29 15:51:57;;;;;;;3.38;3.08;;;;;;;;;;8285845;28;20072;-73
2023/04/29 15:55:57;;;;;;;3.50;3.20;;;;;;;;;;8288874;28;20025;-72
2023/04/29 15:59:57;;;;;;;4.10;3.70;;;;;;;;;;8287426;28;20036;-73
2023/04/29 16:03:58;;;;;;;3.65;3.30;;;;;;;;;;8292404;28;20710;-73
2023/04/29 16:07:58;;;;;;;3.45;3.15;;;;;;;;;;8290114;28;20029;-73
2023/04/29 16:11:58;;;;;;;4.32;3.92;;;;;;;;;;8290652;28;20041;-73
2023/04/29 16:15:58;;;;;;;4.78;4.38;;;;;;;;;;8288600;28;20522;-72
2023/04/29 16:19:58;;;;;;;6.80;5.10;;;;;;;;;;8291114;28;20541;-73
2023/04/29 16:23:58;;;;;;;9.15;6.40;;;;;;;;;;8293586;28;20734;-73
2023/04/29 16:27:59;;;;;;;8.50;7.60;;;;;;;;;;8289788;28;20460;-73
2023/04/29 16:31:59;;;;;;;8.38;7.30;;;;;;;;;;8290126;28;20045;-73
2023/04/29 16:35:59;;;;;;;7.57;6.77;;;;;;;;;;8290340;28;20777;-73
2023/04/29 16:40:00;;;;;;;12.00;8.68;;;;;;;;;;8289449;28;20176;-73
2023/04/29 16:44:00;;;;;;;9.40;8.13;;;;;;;;;;8295160;28;20459;-73
2023/04/29 16:48:00;;;;;;;9.80;8.65;;;;;;;;;;8288375;28;20399;-73
2023/04/29 16:52:00;;;;;;;10.00;8.90;;;;;;;;;;8288175;28;20041;-73
2023/04/29 16:56:00;;;;;;;10.52;9.43;;;;;;;;;;8289750;28;20326;-72
2023/04/29 17:00:01;;;;;;;12.70;10.20;;;;;;;;;;8289702;28;20021;-73
2023/04/29 17:04:01;;;;;;;12.83;9.87;;;;;;;;;;8291470;28;20034;-73
2023/04/29 17:08:02;;;;;;;11.82;9.45;;;;;;;;;;8279938;28;20268;-73
2023/04/29 17:12:02;;;;;;;11.75;9.90;;;;;;;;;;8288612;28;20930;-73
2023/04/29 17:16:03;;;;;;;13.45;10.20;;;;;;;;;;8292592;28;20065;-73
2023/04/29 17:20:03;;;;;;;13.00;11.35;;;;;;;;;;8294139;28;20049;-73
2023/04/29 17:24:03;;;;;;;12.93;10.30;;;;;;;;;;8287102;28;20021;-72
2023/04/29 17:28:05;;;;;;;11.52;10.32;;;;;;;;;;8288768;28;20120;-72
2023/04/29 17:32:09;;;;;;;10.40;9.25;;;;;;;;;;8287494;28;20035;-73
2023/04/29 17:36:10;;;;;;;12.98;10.35;;;;;;;;;;8296698;28;20641;-73
2023/04/29 17:40:10;;;;;;;13.77;11.35;;;;;;;;;;8289864;28;20024;-73
2023/04/29 17:44:10;;;;;;;12.32;10.57;;;;;;;;;;8290721;28;20116;-73
2023/04/29 17:48:10;;;;;;;14.50;11.18;;;;;;;;;;8287525;28;20037;-73
2023/04/29 17:52:11;;;;;;;12.25;9.80;;;;;;;;;;8286906;28;20014;-73
2023/04/29 17:56:11;;;;;;;12.05;10.35;;;;;;;;;;8287538;28;20739;-72
2023/04/29 18:00:12;;;;;;;13.48;10.77;;;;;;;;;;8297186;28;20029;-73
2023/04/29 18:04:12;;;;;;;11.10;9.57;;;;;;;;;;8292624;28;21096;-72
2023/04/29 18:08:12;;;;;;;14.07;10.97;;;;;;;;;;8284493;28;20026;-73
2023/04/29 18:12:12;;;;;;;16.02;11.50;;;;;;;;;;8287379;28;20980;-73
2023/04/29 18:16:12;;;;;;;12.52;11.20;;;;;;;;;;8286218;28;20187;-73
2023/04/29 18:20:13;;;;;;;15.48;12.48;;;;;;;;;;8285292;28;20490;-73
2023/04/29 18:24:13;;;;;;;15.43;12.18;;;;;;;;;;8290884;28;20022;-74
2023/04/29 18:28:13;;;;;;;13.77;10.80;;;;;;;;;;8290169;28;20021;-73
2023/04/29 18:32:13;;;;;;;15.57;12.00;;;;;;;;;;8294087;28;20037;-73
2023/04/29 18:36:13;;;;;;;16.17;11.27;;;;;;;;;;8289083;28;20033;-73
2023/04/29 18:40:14;;;;;;;12.63;10.10;;;;;;;;;;8288446;28;20025;-73
2023/04/29 18:44:14;;;;;;;18.13;11.63;;;;;;;;;;8284854;28;20138;-72
2023/04/29 18:48:14;;;;;;;14.73;12.20;;;;;;;;;;8284895;28;20310;-73
2023/04/29 18:52:14;;;;;;;16.85;12.20;;;;;;;;;;8284198;28;20036;-72
2023/04/29 18:56:14;;;;;;;14.88;11.55;;;;;;;;;;8291844;28;20029;-72
2023/04/29 19:00:15;;;;;;;16.40;11.53;;;;;;;;;;8294330;28;20029;-74
2023/04/29 19:04:15;;;;;;;13.65;10.82;;;;;;;;;;8289308;28;20025;-72
2023/04/29 19:08:15;;;;;;;17.67;12.25;;;;;;;;;;8296346;28;20029;-73
2023/04/29 19:12:15;;;;;;;19.60;11.90;;;;;;;;;;8298888;28;20127;-73
2023/04/29 19:16:16;;;;;;;15.55;11.55;;;;;;;;;;8290512;28;20050;-72
2023/04/29 19:20:16;;;;;;;15.20;11.63;;;;;;;;;;8300763;28;20033;-72
2023/04/29 19:24:16;;;;;;;14.25;11.07;;;;;;;;;;8299603;28;20033;-72
2023/04/29 19:28:16;;;;;;;13.93;10.52;;;;;;;;;;8292035;28;20032;-73
2023/04/29 19:32:19;;;;;;;12.75;10.35;;;;;;;;;;8291265;28;20519;-71
2023/04/29 19:36:19;;;;;;;12.38;10.30;;;;;;;;;;8296906;28;20090;-71
2023/04/29 19:40:20;;;;;;;13.73;10.45;;;;;;;;;;8298423;28;20061;-71
2023/04/29 19:44:20;;;;;;;13.40;9.93;;;;;;;;;;8290820;28;20160;-71
2023/04/29 19:48:21;;;;;;;13.80;10.32;;;;;;;;;;8294682;28;20482;-71
2023/04/29 19:52:23;;;;;;;11.90;9.57;;;;;;;;;;8290962;28;20170;-71
2023/04/29 19:56:23;;;;;;;14.90;10.20;;;;;;;;;;8295468;28;20029;-71
2023/04/29 20:00:23;;;;;;;13.40;9.77;;;;;;;;;;8290615;28;20111;-71
2023/04/29 20:04:24;;;;;;;11.50;9.38;;;;;;;;;;8290842;28;20064;-70
2023/04/29 20:08:25;;;;;;;13.00;9.55;;;;;;;;;;8289888;28;20116;-73
2023/04/29 20:12:25;;;;;;;12.35;9.45;;;;;;;;;;8290242;28;20148;-71
2023/04/29 20:16:28;;;;;;;13.27;9.55;;;;;;;;;;8289080;28;20624;-71
2023/04/29 20:20:28;;;;;;;12.88;9.25;;;;;;;;;;8296637;28;20025;-70
2023/04/29 20:24:28;;;;;;;11.98;9.35;;;;;;;;;;8290399;28;20061;-71
2023/04/29 20:28:28;;;;;;;12.48;9.13;;;;;;;;;;8288420;28;20021;-71
2023/04/29 20:32:29;;;;;;;11.37;8.93;;;;;;;;;;8290908;28;20087;-70
2023/04/29 20:36:30;;;;;;;11.02;8.93;;;;;;;;;;8290105;28;20079;-70
2023/04/29 20:40:31;;;;;;;13.23;9.60;;;;;;;;;;8288896;28;20025;-71
2023/04/29 20:44:32;;;;;;;12.85;9.43;;;;;;;;;;8294907;28;20136;-71
2023/04/29 20:48:32;;;;;;;10.75;8.25;;;;;;;;;;8290217;28;20034;-70
2023/04/29 20:52:33;;;;;;;11.23;9.40;;;;;;;;;;8289763;28;20021;-71
2023/04/29 20:56:33;;;;;;;11.80;9.32;;;;;;;;;;8289247;28;20033;-70
2023/04/29 21:00:33;;;;;;;11.60;8.97;;;;;;;;;;8286666;28;21077;-71
2023/04/29 21:04:33;;;;;;;11.65;8.50;;;;;;;;;;8293437;28;20280;-71
2023/04/29 21:08:34;;;;;;;11.13;8.27;;;;;;;;;;8299720;28;20574;-71
2023/04/29 21:12:34;;;;;;;10.32;8.45;;;;;;;;;;8295809;28;20037;-70
2023/04/29 21:16:35;;;;;;;11.48;8.60;;;;;;;;;;8287662;28;20977;-70
2023/04/29 21:20:35;;;;;;;16.27;8.48;;;;;;;;;;8288710;28;20021;-70
2023/04/29 21:24:35;;;;;;;13.07;8.47;;;;;;;;;;8279890;28;20109;-71
2023/04/29 21:28:35;;;;;;;12.80;7.85;;;;;;;;;;8282186;28;20309;-71
2023/04/29 21:32:35;;;;;;;10.25;7.80;;;;;;;;;;8283343;28;20034;-71
2023/04/29 21:36:36;;;;;;;8.98;7.18;;;;;;;;;;8286294;28;20943;-71
2023/04/29 21:40:39;;;;;;;8.30;7.35;;;;;;;;;;8284505;28;20056;-71
2023/04/29 21:44:39;;;;;;;9.23;7.05;;;;;;;;;;8283493;28;20617;-71
2023/04/29 21:48:39;;;;;;;8.50;6.77;;;;;;;;;;8295121;28;20079;-71
2023/04/29 21:52:40;;;;;;;10.87;7.87;;;;;;;;;;8285078;28;20041;-71
2023/04/29 21:56:40;;;;;;;9.20;7.35;;;;;;;;;;8289897;28;20044;-71
2023/04/29 22:00:46;;;;;;;8.68;7.13;;;;;;;;;;8285410;28;20038;-71
2023/04/29 22:04:50;;;;;;;7.60;6.80;;;;;;;;;;8283468;28;20026;-71
2023/04/29 22:08:50;;;;;;;9.98;7.35;;;;;;;;;;8290324;28;20057;-70
2023/04/29 22:12:50;;;;;;;7.30;5.95;;;;;;;;;;8292901;28;20045;-71
2023/04/29 22:16:50;;;;;;;7.93;6.90;;;;;;;;;;8283910;28;20033;-71
2023/04/29 22:20:51;;;;;;;9.98;7.50;;;;;;;;;;8282766;28;20029;-71
2023/04/29 22:24:51;;;;;;;10.95;8.80;;;;;;;;;;8285134;28;20014;-71
2023/04/29 22:28:51;;;;;;;12.23;8.52;;;;;;;;;;8280635;28;20120;-71
2023/04/29 22:32:51;;;;;;;9.27;7.80;;;;;;;;;;8294682;28;20446;-71
2023/04/29 22:36:51;;;;;;;9.32;7.38;;;;;;;;;;8288247;28;20025;-70
2023/04/29 22:40:52;;;;;;;9.73;7.47;;;;;;;;;;8286314;28;20120;-71
2023/04/29 22:44:52;;;;;;;8.40;7.28;;;;;;;;;;8282277;28;20029;-71
2023/04/29 22:48:52;;;;;;;9.60;7.60;;;;;;;;;;8287934;28;21503;-71
2023/04/29 22:52:52;;;;;;;11.23;7.65;;;;;;;;;;8283859;28;20567;-71
2023/04/29 22:56:52;;;;;;;9.75;7.95;;;;;;;;;;8292684;28;20065;-70
2023/04/29 23:00:57;;;;;;;11.35;8.13;;;;;;;;;;8294200;28;20033;-71
2023/04/29 23:04:58;;;;;;;8.85;7.32;;;;;;;;;;8290099;28;20033;-71
2023/04/29 23:08:58;;;;;;;10.18;8.45;;;;;;;;;;8299945;28;20156;-70
2023/04/29 23:12:58;;;;;;;12.45;8.20;;;;;;;;;;8291820;28;20033;-70
2023/04/29 23:16:58;;;;;;;11.30;8.00;;;;;;;;;;8283148;28;20148;-71
2023/04/29 23:20:58;;;;;;;10.95;8.63;;;;;;;;;;8275436;28;20021;-70
2023/04/29 23:24:59;;;;;;;8.90;7.57;;;;;;;;;;8287502;28;20124;-71
2023/04/29 23:28:59;;;;;;;10.57;7.63;;;;;;;;;;8293055;28;20022;-71
2023/04/29 23:32:59;;;;;;;9.80;8.30;;;;;;;;;;8288877;28;20061;-70
2023/04/29 23:37:00;;;;;;;12.05;8.57;;;;;;;;;;8280295;28;20060;-71
2023/04/29 23:41:00;;;;;;;10.57;8.35;;;;;;;;;;8281872;28;20080;-71
2023/04/29 23:45:00;;;;;;;10.10;8.10;;;;;;;;;;8280751;28;20116;-71
2023/04/29 23:49:00;;;;;;;9.82;8.45;;;;;;;;;;8280034;28;20083;-71
2023/04/29 23:53:01;;;;;;;13.57;9.20;;;;;;;;;;8290165;28;20900;-71
2023/04/29 23:57:01;;;;;;;10.40;8.13;;;;;;;;;;8290532;28;20083;-71
